sensor_id;sensor_type;location;lat;lon;timestamp;P1;durP1;ratioP1;P2;durP2;ratioP2
18726;SDS011;9492;51.888;5.186;2023-04-23T00:00:13;55.67;;;35.43;;
18726;SDS011;9492;51.888;5.186;2023-04-23T00:02:39;60.60;;;36.77;;
18726;SDS011;9492;51.888;5.186;2023-04-23T00:05:08;59.40;;;35.60;;
18726;SDS011;9492;51.888;5.186;2023-04-23T00:07:36;59.30;;;34.70;;
18726;SDS011;9492;51.888;5.186;2023-04-23T00:10:03;58.93;;;35.30;;
18726;SDS011;9492;51.888;5.186;2023-04-23T00:12:29;57.27;;;34.67;;
18726;SDS011;9492;51.888;5.186;2023-04-23T00:14:56;53.63;;;31.73;;
18726;SDS011;9492;51.888;5.186;2023-04-23T00:17:22;58.07;;;34.00;;
18726;SDS011;9492;51.888;5.186;2023-04-23T00:19:48;58.57;;;35.67;;
18726;SDS011;9492;51.888;5.186;2023-04-23T00:22:15;57.63;;;35.23;;
18726;SDS011;9492;51.888;5.186;2023-04-23T00:24:42;54.27;;;33.93;;
18726;SDS011;9492;51.888;5.186;2023-04-23T00:27:08;57.47;;;33.73;;
18726;SDS011;9492;51.888;5.186;2023-04-23T00:29:34;52.93;;;33.07;;
18726;SDS011;9492;51.888;5.186;2023-04-23T00:32:00;54.83;;;33.93;;
18726;SDS011;9492;51.888;5.186;2023-04-23T00:34:27;58.50;;;33.57;;
18726;SDS011;9492;51.888;5.186;2023-04-23T00:36:53;56.57;;;31.53;;
18726;SDS011;9492;51.888;5.186;2023-04-23T00:39:19;49.57;;;30.27;;
18726;SDS011;9492;51.888;5.186;2023-04-23T00:41:45;50.93;;;30.43;;
18726;SDS011;9492;51.888;5.186;2023-04-23T00:44:12;50.77;;;31.40;;
18726;SDS011;9492;51.888;5.186;2023-04-23T00:46:38;54.83;;;33.00;;
18726;SDS011;9492;51.888;5.186;2023-04-23T00:49:04;53.23;;;31.43;;
18726;SDS011;9492;51.888;5.186;2023-04-23T00:51:30;52.10;;;31.80;;
18726;SDS011;9492;51.888;5.186;2023-04-23T00:53:56;47.00;;;30.00;;
18726;SDS011;9492;51.888;5.186;2023-04-23T00:56:22;47.17;;;29.03;;
18726;SDS011;9492;51.888;5.186;2023-04-23T00:58:52;42.97;;;27.47;;
18726;SDS011;9492;51.888;5.186;2023-04-23T01:01:19;41.77;;;28.33;;
18726;SDS011;9492;51.888;5.186;2023-04-23T01:03:46;42.17;;;27.13;;
18726;SDS011;9492;51.888;5.186;2023-04-23T01:06:13;43.70;;;29.50;;
18726;SDS011;9492;51.888;5.186;2023-04-23T01:08:39;46.80;;;29.17;;
18726;SDS011;9492;51.888;5.186;2023-04-23T01:11:07;39.27;;;26.70;;
18726;SDS011;9492;51.888;5.186;2023-04-23T01:13:34;39.53;;;26.80;;
18726;SDS011;9492;51.888;5.186;2023-04-23T01:16:00;38.87;;;26.27;;
18726;SDS011;9492;51.888;5.186;2023-04-23T01:18:26;38.57;;;25.80;;
18726;SDS011;9492;51.888;5.186;2023-04-23T01:20:54;44.27;;;27.57;;
18726;SDS011;9492;51.888;5.186;2023-04-23T01:23:23;43.47;;;27.63;;
18726;SDS011;9492;51.888;5.186;2023-04-23T01:25:51;44.40;;;28.83;;
18726;SDS011;9492;51.888;5.186;2023-04-23T01:28:16;42.07;;;27.27;;
18726;SDS011;9492;51.888;5.186;2023-04-23T01:30:43;43.37;;;26.93;;
18726;SDS011;9492;51.888;5.186;2023-04-23T01:33:10;46.93;;;29.07;;
18726;SDS011;9492;51.888;5.186;2023-04-23T01:35:36;43.63;;;27.83;;
18726;SDS011;9492;51.888;5.186;2023-04-23T01:38:02;40.17;;;25.90;;
18726;SDS011;9492;51.888;5.186;2023-04-23T01:40:28;45.03;;;28.67;;
18726;SDS011;9492;51.888;5.186;2023-04-23T01:42:54;46.93;;;28.63;;
18726;SDS011;9492;51.888;5.186;2023-04-23T01:45:21;41.93;;;26.10;;
18726;SDS011;9492;51.888;5.186;2023-04-23T01:47:47;42.03;;;27.03;;
18726;SDS011;9492;51.888;5.186;2023-04-23T01:50:13;40.47;;;25.87;;
18726;SDS011;9492;51.888;5.186;2023-04-23T01:52:39;40.53;;;25.57;;
18726;SDS011;9492;51.888;5.186;2023-04-23T01:55:06;41.90;;;26.33;;
18726;SDS011;9492;51.888;5.186;2023-04-23T01:57:32;41.03;;;25.77;;
18726;SDS011;9492;51.888;5.186;2023-04-23T02:00:03;42.97;;;26.73;;
18726;SDS011;9492;51.888;5.186;2023-04-23T02:02:36;37.43;;;25.80;;
18726;SDS011;9492;51.888;5.186;2023-04-23T02:05:02;36.27;;;24.70;;
18726;SDS011;9492;51.888;5.186;2023-04-23T02:07:32;41.70;;;27.13;;
18726;SDS011;9492;51.888;5.186;2023-04-23T02:09:58;35.10;;;23.90;;
18726;SDS011;9492;51.888;5.186;2023-04-23T02:12:24;39.30;;;25.23;;
18726;SDS011;9492;51.888;5.186;2023-04-23T02:14:51;33.87;;;23.53;;
18726;SDS011;9492;51.888;5.186;2023-04-23T02:17:20;39.67;;;25.33;;
18726;SDS011;9492;51.888;5.186;2023-04-23T02:19:47;36.83;;;24.80;;
18726;SDS011;9492;51.888;5.186;2023-04-23T02:22:14;40.80;;;26.17;;
18726;SDS011;9492;51.888;5.186;2023-04-23T02:24:40;38.57;;;24.93;;
18726;SDS011;9492;51.888;5.186;2023-04-23T02:27:06;47.50;;;27.07;;
18726;SDS011;9492;51.888;5.186;2023-04-23T02:29:33;43.60;;;26.13;;
18726;SDS011;9492;51.888;5.186;2023-04-23T02:32:00;38.23;;;25.87;;
18726;SDS011;9492;51.888;5.186;2023-04-23T02:34:26;39.80;;;24.83;;
18726;SDS011;9492;51.888;5.186;2023-04-23T02:36:52;38.40;;;24.97;;
18726;SDS011;9492;51.888;5.186;2023-04-23T02:39:18;35.83;;;23.33;;
18726;SDS011;9492;51.888;5.186;2023-04-23T02:41:44;34.80;;;23.27;;
18726;SDS011;9492;51.888;5.186;2023-04-23T02:44:10;32.93;;;22.47;;
18726;SDS011;9492;51.888;5.186;2023-04-23T02:46:36;34.80;;;23.93;;
18726;SDS011;9492;51.888;5.186;2023-04-23T02:49:02;36.70;;;24.40;;
18726;SDS011;9492;51.888;5.186;2023-04-23T02:51:30;35.43;;;23.87;;
18726;SDS011;9492;51.888;5.186;2023-04-23T02:53:56;32.47;;;22.50;;
18726;SDS011;9492;51.888;5.186;2023-04-23T02:56:22;30.37;;;21.47;;
18726;SDS011;9492;51.888;5.186;2023-04-23T02:58:48;34.43;;;23.87;;
18726;SDS011;9492;51.888;5.186;2023-04-23T03:01:15;32.80;;;21.87;;
18726;SDS011;9492;51.888;5.186;2023-04-23T03:03:41;30.27;;;21.47;;
18726;SDS011;9492;51.888;5.186;2023-04-23T03:06:07;30.90;;;21.03;;
18726;SDS011;9492;51.888;5.186;2023-04-23T03:08:33;32.03;;;21.57;;
18726;SDS011;9492;51.888;5.186;2023-04-23T03:10:59;30.53;;;20.87;;
18726;SDS011;9492;51.888;5.186;2023-04-23T03:13:25;29.90;;;20.27;;
18726;SDS011;9492;51.888;5.186;2023-04-23T03:15:52;27.77;;;19.30;;
18726;SDS011;9492;51.888;5.186;2023-04-23T03:18:18;30.40;;;20.10;;
18726;SDS011;9492;51.888;5.186;2023-04-23T03:20:44;28.13;;;19.40;;
18726;SDS011;9492;51.888;5.186;2023-04-23T03:23:10;27.10;;;18.50;;
18726;SDS011;9492;51.888;5.186;2023-04-23T03:25:36;25.67;;;18.97;;
18726;SDS011;9492;51.888;5.186;2023-04-23T03:28:02;23.47;;;18.07;;
18726;SDS011;9492;51.888;5.186;2023-04-23T03:30:28;25.10;;;18.30;;
18726;SDS011;9492;51.888;5.186;2023-04-23T03:32:55;25.70;;;18.70;;
18726;SDS011;9492;51.888;5.186;2023-04-23T03:35:22;25.20;;;17.30;;
18726;SDS011;9492;51.888;5.186;2023-04-23T03:37:48;22.90;;;17.10;;
18726;SDS011;9492;51.888;5.186;2023-04-23T03:40:14;24.83;;;18.50;;
18726;SDS011;9492;51.888;5.186;2023-04-23T03:42:40;23.73;;;17.27;;
18726;SDS011;9492;51.888;5.186;2023-04-23T03:45:06;23.37;;;18.10;;
18726;SDS011;9492;51.888;5.186;2023-04-23T03:47:32;21.80;;;16.57;;
18726;SDS011;9492;51.888;5.186;2023-04-23T03:49:58;20.97;;;16.80;;
18726;SDS011;9492;51.888;5.186;2023-04-23T03:52:24;24.17;;;17.67;;
18726;SDS011;9492;51.888;5.186;2023-04-23T03:54:50;23.93;;;18.40;;
18726;SDS011;9492;51.888;5.186;2023-04-23T03:57:16;24.63;;;17.63;;
18726;SDS011;9492;51.888;5.186;2023-04-23T03:59:42;22.70;;;16.93;;
18726;SDS011;9492;51.888;5.186;2023-04-23T04:02:08;20.97;;;16.00;;
18726;SDS011;9492;51.888;5.186;2023-04-23T04:04:35;21.60;;;17.27;;
18726;SDS011;9492;51.888;5.186;2023-04-23T04:07:01;21.50;;;17.27;;
18726;SDS011;9492;51.888;5.186;2023-04-23T04:09:27;22.83;;;17.87;;
18726;SDS011;9492;51.888;5.186;2023-04-23T04:11:54;22.00;;;17.00;;
18726;SDS011;9492;51.888;5.186;2023-04-23T04:14:20;22.77;;;17.60;;
18726;SDS011;9492;51.888;5.186;2023-04-23T04:16:46;25.20;;;17.93;;
18726;SDS011;9492;51.888;5.186;2023-04-23T04:19:12;22.67;;;18.20;;
18726;SDS011;9492;51.888;5.186;2023-04-23T04:21:39;22.93;;;17.93;;
18726;SDS011;9492;51.888;5.186;2023-04-23T04:24:05;22.30;;;16.90;;
18726;SDS011;9492;51.888;5.186;2023-04-23T04:26:31;21.60;;;16.67;;
18726;SDS011;9492;51.888;5.186;2023-04-23T04:28:58;23.73;;;17.70;;
18726;SDS011;9492;51.888;5.186;2023-04-23T04:31:25;24.37;;;17.50;;
18726;SDS011;9492;51.888;5.186;2023-04-23T04:33:52;20.70;;;16.40;;
18726;SDS011;9492;51.888;5.186;2023-04-23T04:36:18;20.73;;;16.00;;
18726;SDS011;9492;51.888;5.186;2023-04-23T04:38:43;23.10;;;16.97;;
18726;SDS011;9492;51.888;5.186;2023-04-23T04:41:09;22.33;;;16.57;;
18726;SDS011;9492;51.888;5.186;2023-04-23T04:43:37;22.43;;;17.50;;
18726;SDS011;9492;51.888;5.186;2023-04-23T04:46:03;23.90;;;16.87;;
18726;SDS011;9492;51.888;5.186;2023-04-23T04:48:29;21.40;;;16.23;;
18726;SDS011;9492;51.888;5.186;2023-04-23T04:50:55;21.70;;;15.93;;
18726;SDS011;9492;51.888;5.186;2023-04-23T04:53:21;22.50;;;17.83;;
18726;SDS011;9492;51.888;5.186;2023-04-23T04:55:47;20.00;;;15.67;;
18726;SDS011;9492;51.888;5.186;2023-04-23T04:58:13;23.77;;;17.63;;
18726;SDS011;9492;51.888;5.186;2023-04-23T05:00:39;22.37;;;16.27;;
18726;SDS011;9492;51.888;5.186;2023-04-23T05:03:06;18.33;;;14.67;;
18726;SDS011;9492;51.888;5.186;2023-04-23T05:05:32;19.00;;;14.90;;
18726;SDS011;9492;51.888;5.186;2023-04-23T05:07:58;19.17;;;14.90;;
18726;SDS011;9492;51.888;5.186;2023-04-23T05:10:26;21.87;;;14.77;;
18726;SDS011;9492;51.888;5.186;2023-04-23T05:12:53;21.50;;;16.23;;
18726;SDS011;9492;51.888;5.186;2023-04-23T05:15:19;21.10;;;15.57;;
18726;SDS011;9492;51.888;5.186;2023-04-23T05:17:45;21.17;;;15.90;;
18726;SDS011;9492;51.888;5.186;2023-04-23T05:20:11;20.97;;;15.23;;
18726;SDS011;9492;51.888;5.186;2023-04-23T05:22:37;17.93;;;13.80;;
18726;SDS011;9492;51.888;5.186;2023-04-23T05:25:03;18.03;;;14.37;;
18726;SDS011;9492;51.888;5.186;2023-04-23T05:27:30;17.93;;;14.63;;
18726;SDS011;9492;51.888;5.186;2023-04-23T05:29:56;17.73;;;14.17;;
18726;SDS011;9492;51.888;5.186;2023-04-23T05:32:23;17.87;;;14.07;;
18726;SDS011;9492;51.888;5.186;2023-04-23T05:34:50;20.03;;;14.40;;
18726;SDS011;9492;51.888;5.186;2023-04-23T05:37:16;17.20;;;13.73;;
18726;SDS011;9492;51.888;5.186;2023-04-23T05:39:43;17.13;;;13.20;;
18726;SDS011;9492;51.888;5.186;2023-04-23T05:42:09;17.80;;;13.33;;
18726;SDS011;9492;51.888;5.186;2023-04-23T05:44:36;16.40;;;13.77;;
18726;SDS011;9492;51.888;5.186;2023-04-23T05:47:02;15.83;;;12.77;;
18726;SDS011;9492;51.888;5.186;2023-04-23T05:49:28;17.27;;;12.17;;
18726;SDS011;9492;51.888;5.186;2023-04-23T05:51:55;14.43;;;12.70;;
18726;SDS011;9492;51.888;5.186;2023-04-23T05:54:23;14.77;;;12.90;;
18726;SDS011;9492;51.888;5.186;2023-04-23T05:56:49;16.53;;;12.70;;
18726;SDS011;9492;51.888;5.186;2023-04-23T05:59:15;14.40;;;11.87;;
18726;SDS011;9492;51.888;5.186;2023-04-23T06:01:41;17.80;;;13.23;;
18726;SDS011;9492;51.888;5.186;2023-04-23T06:04:07;14.93;;;12.73;;
18726;SDS011;9492;51.888;5.186;2023-04-23T06:06:33;15.10;;;12.43;;
18726;SDS011;9492;51.888;5.186;2023-04-23T06:08:59;13.47;;;11.97;;
18726;SDS011;9492;51.888;5.186;2023-04-23T06:11:25;14.27;;;12.20;;
18726;SDS011;9492;51.888;5.186;2023-04-23T06:13:51;15.03;;;11.63;;
18726;SDS011;9492;51.888;5.186;2023-04-23T06:16:17;16.37;;;10.37;;
18726;SDS011;9492;51.888;5.186;2023-04-23T06:18:43;12.40;;;11.17;;
18726;SDS011;9492;51.888;5.186;2023-04-23T06:21:09;13.50;;;11.17;;
18726;SDS011;9492;51.888;5.186;2023-04-23T06:23:36;12.37;;;10.40;;
18726;SDS011;9492;51.888;5.186;2023-04-23T06:26:02;12.87;;;10.60;;
18726;SDS011;9492;51.888;5.186;2023-04-23T06:28:28;13.60;;;10.90;;
18726;SDS011;9492;51.888;5.186;2023-04-23T06:30:54;12.63;;;10.50;;
18726;SDS011;9492;51.888;5.186;2023-04-23T06:33:20;11.13;;;10.03;;
18726;SDS011;9492;51.888;5.186;2023-04-23T06:35:46;10.83;;;9.73;;
18726;SDS011;9492;51.888;5.186;2023-04-23T06:38:12;10.73;;;9.40;;
18726;SDS011;9492;51.888;5.186;2023-04-23T06:40:38;12.83;;;10.37;;
18726;SDS011;9492;51.888;5.186;2023-04-23T06:43:04;11.27;;;10.13;;
18726;SDS011;9492;51.888;5.186;2023-04-23T06:45:31;9.97;;;8.60;;
18726;SDS011;9492;51.888;5.186;2023-04-23T06:47:58;10.83;;;8.87;;
18726;SDS011;9492;51.888;5.186;2023-04-23T06:50:24;10.13;;;8.90;;
18726;SDS011;9492;51.888;5.186;2023-04-23T06:52:50;11.53;;;9.53;;
18726;SDS011;9492;51.888;5.186;2023-04-23T06:55:17;11.20;;;8.97;;
18726;SDS011;9492;51.888;5.186;2023-04-23T06:57:43;11.20;;;9.10;;
18726;SDS011;9492;51.888;5.186;2023-04-23T07:00:09;10.60;;;8.53;;
18726;SDS011;9492;51.888;5.186;2023-04-23T07:02:36;11.43;;;9.10;;
18726;SDS011;9492;51.888;5.186;2023-04-23T07:05:02;11.63;;;8.80;;
18726;SDS011;9492;51.888;5.186;2023-04-23T07:07:28;8.47;;;7.57;;
18726;SDS011;9492;51.888;5.186;2023-04-23T07:09:58;8.83;;;7.63;;
18726;SDS011;9492;51.888;5.186;2023-04-23T07:12:23;9.23;;;8.10;;
18726;SDS011;9492;51.888;5.186;2023-04-23T07:14:49;9.37;;;8.20;;
18726;SDS011;9492;51.888;5.186;2023-04-23T07:17:17;9.90;;;7.80;;
18726;SDS011;9492;51.888;5.186;2023-04-23T07:19:43;9.03;;;7.63;;
18726;SDS011;9492;51.888;5.186;2023-04-23T07:22:09;8.97;;;7.13;;
18726;SDS011;9492;51.888;5.186;2023-04-23T07:24:35;7.47;;;6.17;;
18726;SDS011;9492;51.888;5.186;2023-04-23T07:27:01;6.40;;;5.80;;
18726;SDS011;9492;51.888;5.186;2023-04-23T07:29:27;9.33;;;5.97;;
18726;SDS011;9492;51.888;5.186;2023-04-23T07:31:53;8.20;;;6.27;;
18726;SDS011;9492;51.888;5.186;2023-04-23T07:34:20;6.80;;;5.80;;
18726;SDS011;9492;51.888;5.186;2023-04-23T07:36:46;6.20;;;5.50;;
18726;SDS011;9492;51.888;5.186;2023-04-23T07:39:12;10.27;;;5.33;;
18726;SDS011;9492;51.888;5.186;2023-04-23T07:41:38;7.77;;;5.20;;
18726;SDS011;9492;51.888;5.186;2023-04-23T07:44:04;6.43;;;5.07;;
18726;SDS011;9492;51.888;5.186;2023-04-23T07:46:30;6.33;;;4.60;;
18726;SDS011;9492;51.888;5.186;2023-04-23T07:48:56;7.40;;;5.87;;
18726;SDS011;9492;51.888;5.186;2023-04-23T07:51:22;7.63;;;5.50;;
18726;SDS011;9492;51.888;5.186;2023-04-23T07:53:51;9.30;;;5.13;;
18726;SDS011;9492;51.888;5.186;2023-04-23T07:56:18;8.30;;;5.50;;
18726;SDS011;9492;51.888;5.186;2023-04-23T07:58:45;8.13;;;5.10;;
18726;SDS011;9492;51.888;5.186;2023-04-23T08:01:11;8.30;;;5.13;;
18726;SDS011;9492;51.888;5.186;2023-04-23T08:03:37;9.17;;;4.87;;
18726;SDS011;9492;51.888;5.186;2023-04-23T08:06:03;8.30;;;5.70;;
18726;SDS011;9492;51.888;5.186;2023-04-23T08:08:29;10.43;;;5.10;;
18726;SDS011;9492;51.888;5.186;2023-04-23T08:10:55;8.47;;;5.17;;
18726;SDS011;9492;51.888;5.186;2023-04-23T08:13:21;7.03;;;5.17;;
18726;SDS011;9492;51.888;5.186;2023-04-23T08:15:47;8.03;;;4.93;;
18726;SDS011;9492;51.888;5.186;2023-04-23T08:18:13;7.73;;;4.50;;
18726;SDS011;9492;51.888;5.186;2023-04-23T08:20:39;8.50;;;5.33;;
18726;SDS011;9492;51.888;5.186;2023-04-23T08:23:05;10.03;;;5.10;;
18726;SDS011;9492;51.888;5.186;2023-04-23T08:25:31;10.33;;;5.37;;
18726;SDS011;9492;51.888;5.186;2023-04-23T08:27:58;8.90;;;4.67;;
18726;SDS011;9492;51.888;5.186;2023-04-23T08:30:25;11.00;;;4.93;;
18726;SDS011;9492;51.888;5.186;2023-04-23T08:32:51;9.30;;;4.93;;
18726;SDS011;9492;51.888;5.186;2023-04-23T08:35:18;7.40;;;4.70;;
18726;SDS011;9492;51.888;5.186;2023-04-23T08:37:44;6.63;;;4.60;;
18726;SDS011;9492;51.888;5.186;2023-04-23T08:40:10;6.13;;;4.63;;
18726;SDS011;9492;51.888;5.186;2023-04-23T08:45:06;7.93;;;4.17;;
18726;SDS011;9492;51.888;5.186;2023-04-23T08:47:33;7.17;;;4.27;;
18726;SDS011;9492;51.888;5.186;2023-04-23T08:50:00;9.57;;;4.07;;
18726;SDS011;9492;51.888;5.186;2023-04-23T08:52:28;11.70;;;4.47;;
18726;SDS011;9492;51.888;5.186;2023-04-23T08:54:58;7.67;;;4.50;;
18726;SDS011;9492;51.888;5.186;2023-04-23T08:57:24;7.50;;;4.57;;
18726;SDS011;9492;51.888;5.186;2023-04-23T08:59:51;6.07;;;3.90;;
18726;SDS011;9492;51.888;5.186;2023-04-23T09:02:17;11.17;;;4.07;;
18726;SDS011;9492;51.888;5.186;2023-04-23T09:04:43;7.17;;;4.53;;
18726;SDS011;9492;51.888;5.186;2023-04-23T09:07:10;9.90;;;3.90;;
18726;SDS011;9492;51.888;5.186;2023-04-23T09:09:37;4.77;;;3.83;;
18726;SDS011;9492;51.888;5.186;2023-04-23T09:12:04;7.90;;;4.13;;
18726;SDS011;9492;51.888;5.186;2023-04-23T09:14:32;8.43;;;3.90;;
18726;SDS011;9492;51.888;5.186;2023-04-23T09:16:58;6.40;;;3.40;;
18726;SDS011;9492;51.888;5.186;2023-04-23T09:19:25;5.27;;;3.20;;
18726;SDS011;9492;51.888;5.186;2023-04-23T09:22:01;7.67;;;3.97;;
18726;SDS011;9492;51.888;5.186;2023-04-23T09:24:27;9.67;;;4.47;;
18726;SDS011;9492;51.888;5.186;2023-04-23T09:26:55;7.73;;;3.17;;
18726;SDS011;9492;51.888;5.186;2023-04-23T09:29:22;5.97;;;3.77;;
18726;SDS011;9492;51.888;5.186;2023-04-23T09:31:49;11.53;;;4.30;;
18726;SDS011;9492;51.888;5.186;2023-04-23T09:34:19;6.30;;;3.13;;
18726;SDS011;9492;51.888;5.186;2023-04-23T09:36:47;5.90;;;2.93;;
18726;SDS011;9492;51.888;5.186;2023-04-23T09:39:16;6.87;;;3.27;;
18726;SDS011;9492;51.888;5.186;2023-04-23T09:41:43;9.80;;;3.57;;
18726;SDS011;9492;51.888;5.186;2023-04-23T09:44:16;7.40;;;2.93;;
18726;SDS011;9492;51.888;5.186;2023-04-23T09:46:42;7.30;;;3.27;;
18726;SDS011;9492;51.888;5.186;2023-04-23T09:49:09;7.63;;;2.90;;
18726;SDS011;9492;51.888;5.186;2023-04-23T09:51:36;7.00;;;3.47;;
18726;SDS011;9492;51.888;5.186;2023-04-23T09:54:06;6.00;;;2.93;;
18726;SDS011;9492;51.888;5.186;2023-04-23T09:56:35;6.50;;;2.80;;
18726;SDS011;9492;51.888;5.186;2023-04-23T09:59:01;5.83;;;2.93;;
18726;SDS011;9492;51.888;5.186;2023-04-23T10:01:28;7.40;;;2.67;;
18726;SDS011;9492;51.888;5.186;2023-04-23T10:03:54;5.83;;;3.03;;
18726;SDS011;9492;51.888;5.186;2023-04-23T10:06:25;6.47;;;2.83;;
18726;SDS011;9492;51.888;5.186;2023-04-23T10:08:54;6.20;;;2.60;;
18726;SDS011;9492;51.888;5.186;2023-04-23T10:11:21;5.77;;;3.00;;
18726;SDS011;9492;51.888;5.186;2023-04-23T10:13:48;4.30;;;2.37;;
18726;SDS011;9492;51.888;5.186;2023-04-23T10:16:14;5.67;;;2.30;;
18726;SDS011;9492;51.888;5.186;2023-04-23T10:18:40;7.40;;;2.20;;
18726;SDS011;9492;51.888;5.186;2023-04-23T10:21:06;6.00;;;2.77;;
18726;SDS011;9492;51.888;5.186;2023-04-23T10:23:32;6.30;;;2.17;;
18726;SDS011;9492;51.888;5.186;2023-04-23T10:25:59;4.47;;;2.07;;
18726;SDS011;9492;51.888;5.186;2023-04-23T10:28:26;7.70;;;2.47;;
18726;SDS011;9492;51.888;5.186;2023-04-23T10:30:56;3.43;;;2.00;;
18726;SDS011;9492;51.888;5.186;2023-04-23T10:33:22;4.37;;;2.00;;
18726;SDS011;9492;51.888;5.186;2023-04-23T10:35:49;3.70;;;1.63;;
18726;SDS011;9492;51.888;5.186;2023-04-23T10:38:15;7.27;;;2.03;;
18726;SDS011;9492;51.888;5.186;2023-04-23T10:40:42;3.80;;;1.80;;
18726;SDS011;9492;51.888;5.186;2023-04-23T10:43:10;3.63;;;1.90;;
18726;SDS011;9492;51.888;5.186;2023-04-23T10:45:36;7.20;;;2.17;;
18726;SDS011;9492;51.888;5.186;2023-04-23T10:48:02;4.93;;;2.10;;
18726;SDS011;9492;51.888;5.186;2023-04-23T10:50:29;4.97;;;2.03;;
18726;SDS011;9492;51.888;5.186;2023-04-23T10:52:55;8.87;;;2.40;;
18726;SDS011;9492;51.888;5.186;2023-04-23T10:55:23;5.57;;;2.30;;
18726;SDS011;9492;51.888;5.186;2023-04-23T11:00:22;5.80;;;2.03;;
18726;SDS011;9492;51.888;5.186;2023-04-23T11:02:48;6.17;;;2.47;;
18726;SDS011;9492;51.888;5.186;2023-04-23T11:05:16;3.17;;;1.70;;
18726;SDS011;9492;51.888;5.186;2023-04-23T11:08:00;6.57;;;1.97;;
18726;SDS011;9492;51.888;5.186;2023-04-23T11:10:26;5.87;;;2.00;;
18726;SDS011;9492;51.888;5.186;2023-04-23T11:12:54;6.70;;;2.07;;
18726;SDS011;9492;51.888;5.186;2023-04-23T11:15:20;5.07;;;2.10;;
18726;SDS011;9492;51.888;5.186;2023-04-23T11:20:19;5.73;;;2.10;;
18726;SDS011;9492;51.888;5.186;2023-04-23T11:22:46;3.87;;;1.90;;
18726;SDS011;9492;51.888;5.186;2023-04-23T11:25:13;5.50;;;1.80;;
18726;SDS011;9492;51.888;5.186;2023-04-23T11:27:41;5.30;;;2.23;;
18726;SDS011;9492;51.888;5.186;2023-04-23T11:30:12;4.93;;;1.53;;
18726;SDS011;9492;51.888;5.186;2023-04-23T11:32:38;5.03;;;1.60;;
18726;SDS011;9492;51.888;5.186;2023-04-23T11:35:07;8.20;;;1.93;;
18726;SDS011;9492;51.888;5.186;2023-04-23T11:37:41;7.60;;;2.27;;
18726;SDS011;9492;51.888;5.186;2023-04-23T11:40:08;5.23;;;1.93;;
18726;SDS011;9492;51.888;5.186;2023-04-23T11:42:41;9.37;;;2.10;;
18726;SDS011;9492;51.888;5.186;2023-04-23T11:45:14;5.73;;;1.93;;
18726;SDS011;9492;51.888;5.186;2023-04-23T11:47:40;3.27;;;1.67;;
18726;SDS011;9492;51.888;5.186;2023-04-23T11:50:06;3.70;;;1.30;;
18726;SDS011;9492;51.888;5.186;2023-04-23T11:52:32;3.20;;;1.53;;
18726;SDS011;9492;51.888;5.186;2023-04-23T11:55:02;2.77;;;1.70;;
18726;SDS011;9492;51.888;5.186;2023-04-23T11:57:28;3.37;;;1.50;;
18726;SDS011;9492;51.888;5.186;2023-04-23T11:59:54;3.10;;;1.70;;
18726;SDS011;9492;51.888;5.186;2023-04-23T12:02:22;6.40;;;1.70;;
18726;SDS011;9492;51.888;5.186;2023-04-23T12:04:48;6.87;;;2.17;;
18726;SDS011;9492;51.888;5.186;2023-04-23T12:07:15;2.63;;;1.40;;
18726;SDS011;9492;51.888;5.186;2023-04-23T12:09:41;3.97;;;1.70;;
18726;SDS011;9492;51.888;5.186;2023-04-23T12:12:10;7.27;;;2.13;;
18726;SDS011;9492;51.888;5.186;2023-04-23T12:14:36;1.83;;;1.40;;
18726;SDS011;9492;51.888;5.186;2023-04-23T12:17:09;3.87;;;1.60;;
18726;SDS011;9492;51.888;5.186;2023-04-23T12:19:35;5.97;;;1.70;;
18726;SDS011;9492;51.888;5.186;2023-04-23T12:22:02;4.53;;;1.63;;
18726;SDS011;9492;51.888;5.186;2023-04-23T12:24:30;3.00;;;1.83;;
18726;SDS011;9492;51.888;5.186;2023-04-23T12:26:57;2.47;;;1.40;;
18726;SDS011;9492;51.888;5.186;2023-04-23T12:29:24;5.07;;;1.87;;
18726;SDS011;9492;51.888;5.186;2023-04-23T12:31:51;3.20;;;1.63;;
18726;SDS011;9492;51.888;5.186;2023-04-23T12:34:18;5.07;;;1.60;;
18726;SDS011;9492;51.888;5.186;2023-04-23T12:36:45;3.77;;;1.70;;
18726;SDS011;9492;51.888;5.186;2023-04-23T12:39:18;2.70;;;1.47;;
18726;SDS011;9492;51.888;5.186;2023-04-23T12:41:45;3.73;;;1.40;;
18726;SDS011;9492;51.888;5.186;2023-04-23T12:44:11;7.87;;;1.67;;
18726;SDS011;9492;51.888;5.186;2023-04-23T12:46:37;3.73;;;1.43;;
18726;SDS011;9492;51.888;5.186;2023-04-23T12:49:03;2.63;;;1.60;;
18726;SDS011;9492;51.888;5.186;2023-04-23T12:51:29;3.07;;;1.50;;
18726;SDS011;9492;51.888;5.186;2023-04-23T12:53:55;3.63;;;1.83;;
18726;SDS011;9492;51.888;5.186;2023-04-23T12:56:21;3.93;;;1.80;;
18726;SDS011;9492;51.888;5.186;2023-04-23T12:58:47;3.23;;;1.60;;
18726;SDS011;9492;51.888;5.186;2023-04-23T13:01:15;2.27;;;1.40;;
18726;SDS011;9492;51.888;5.186;2023-04-23T13:03:43;3.13;;;1.30;;
18726;SDS011;9492;51.888;5.186;2023-04-23T13:06:09;4.57;;;1.50;;
18726;SDS011;9492;51.888;5.186;2023-04-23T13:08:35;2.77;;;1.33;;
18726;SDS011;9492;51.888;5.186;2023-04-23T13:11:02;3.13;;;1.67;;
18726;SDS011;9492;51.888;5.186;2023-04-23T13:13:28;2.73;;;1.50;;
18726;SDS011;9492;51.888;5.186;2023-04-23T13:15:54;4.17;;;1.60;;
18726;SDS011;9492;51.888;5.186;2023-04-23T13:18:20;4.53;;;1.43;;
18726;SDS011;9492;51.888;5.186;2023-04-23T13:20:46;4.70;;;1.53;;
18726;SDS011;9492;51.888;5.186;2023-04-23T13:23:12;2.57;;;1.17;;
18726;SDS011;9492;51.888;5.186;2023-04-23T13:25:39;4.20;;;1.60;;
18726;SDS011;9492;51.888;5.186;2023-04-23T13:28:05;3.17;;;1.20;;
18726;SDS011;9492;51.888;5.186;2023-04-23T13:30:31;3.70;;;1.30;;
18726;SDS011;9492;51.888;5.186;2023-04-23T13:32:57;3.77;;;1.20;;
18726;SDS011;9492;51.888;5.186;2023-04-23T13:35:23;1.63;;;1.03;;
18726;SDS011;9492;51.888;5.186;2023-04-23T13:37:49;3.77;;;1.30;;
18726;SDS011;9492;51.888;5.186;2023-04-23T13:40:15;3.30;;;1.43;;
18726;SDS011;9492;51.888;5.186;2023-04-23T13:42:41;3.10;;;1.17;;
18726;SDS011;9492;51.888;5.186;2023-04-23T13:45:07;2.93;;;1.67;;
18726;SDS011;9492;51.888;5.186;2023-04-23T13:47:34;3.00;;;1.10;;
18726;SDS011;9492;51.888;5.186;2023-04-23T13:50:00;5.23;;;1.50;;
18726;SDS011;9492;51.888;5.186;2023-04-23T13:52:29;2.93;;;1.50;;
18726;SDS011;9492;51.888;5.186;2023-04-23T13:54:56;3.50;;;1.43;;
18726;SDS011;9492;51.888;5.186;2023-04-23T13:57:24;1.73;;;1.20;;
18726;SDS011;9492;51.888;5.186;2023-04-23T13:59:53;3.23;;;1.50;;
18726;SDS011;9492;51.888;5.186;2023-04-23T14:02:20;2.33;;;1.13;;
18726;SDS011;9492;51.888;5.186;2023-04-23T14:04:46;4.60;;;2.07;;
18726;SDS011;9492;51.888;5.186;2023-04-23T14:07:12;2.03;;;1.10;;
18726;SDS011;9492;51.888;5.186;2023-04-23T14:09:38;4.70;;;1.87;;
18726;SDS011;9492;51.888;5.186;2023-04-23T14:12:04;1.90;;;1.10;;
18726;SDS011;9492;51.888;5.186;2023-04-23T14:14:30;1.33;;;1.10;;
18726;SDS011;9492;51.888;5.186;2023-04-23T14:16:56;4.60;;;1.40;;
18726;SDS011;9492;51.888;5.186;2023-04-23T14:19:22;3.13;;;1.17;;
18726;SDS011;9492;51.888;5.186;2023-04-23T14:21:48;3.53;;;1.30;;
18726;SDS011;9492;51.888;5.186;2023-04-23T14:24:21;6.10;;;1.40;;
18726;SDS011;9492;51.888;5.186;2023-04-23T14:26:50;3.33;;;1.80;;
18726;SDS011;9492;51.888;5.186;2023-04-23T14:31:42;4.93;;;1.90;;
18726;SDS011;9492;51.888;5.186;2023-04-23T14:34:08;7.10;;;1.73;;
18726;SDS011;9492;51.888;5.186;2023-04-23T14:36:35;7.07;;;2.77;;
18726;SDS011;9492;51.888;5.186;2023-04-23T14:39:01;4.77;;;1.70;;
18726;SDS011;9492;51.888;5.186;2023-04-23T14:41:30;4.37;;;1.70;;
18726;SDS011;9492;51.888;5.186;2023-04-23T14:43:56;5.00;;;1.60;;
18726;SDS011;9492;51.888;5.186;2023-04-23T14:46:22;4.83;;;1.77;;
18726;SDS011;9492;51.888;5.186;2023-04-23T14:48:48;5.47;;;2.53;;
18726;SDS011;9492;51.888;5.186;2023-04-23T14:51:14;4.10;;;2.10;;
18726;SDS011;9492;51.888;5.186;2023-04-23T14:53:40;8.10;;;2.70;;